createdAt,value
2023-01-29T00:01:18.264Z,55.25
2023-01-29T00:03:44.632Z,55.14
2023-01-29T00:06:11.828Z,55.37
2023-01-29T00:08:38.897Z,55.13
2023-01-29T00:11:07.828Z,55.04
2023-01-29T00:13:34.853Z,54.74
2023-01-29T00:16:01.788Z,55.14
2023-01-29T00:18:29.093Z,55.06
2023-01-29T00:20:56.145Z,55.08
2023-01-29T00:23:23.442Z,54.89
2023-01-29T00:25:49.803Z,55.40
2023-01-29T00:28:16.158Z,55.01
2023-01-29T00:30:42.651Z,55.39
2023-01-29T00:33:08.966Z,54.93
2023-01-29T00:35:35.295Z,55.15
2023-01-29T00:38:01.663Z,54.92
2023-01-29T00:40:28.058Z,54.92
2023-01-29T00:43:13.071Z,55.02
2023-01-29T00:45:39.611Z,54.65
2023-01-29T00:48:06.309Z,55.02
2023-01-29T00:50:32.789Z,54.95
2023-01-29T00:52:59.108Z,55.07
2023-01-29T00:55:25.425Z,54.74
2023-01-29T00:57:51.786Z,54.73
2023-01-29T01:00:19.280Z,54.87
2023-01-29T01:03:04.039Z,54.88
2023-01-29T01:05:30.378Z,54.77
2023-01-29T01:07:57.909Z,54.71
2023-01-29T01:10:33.048Z,55.07
2023-01-29T01:13:05.093Z,54.90
2023-01-29T01:15:35.451Z,55.11
2023-01-29T01:18:02.888Z,54.98
2023-01-29T01:20:31.553Z,55.02
2023-01-29T01:22:58.025Z,54.75
2023-01-29T01:25:26.651Z,55.11
2023-01-29T01:27:54.378Z,54.76
2023-01-29T01:30:21.028Z,54.85
2023-01-29T01:32:47.410Z,55.29
2023-01-29T01:35:14.774Z,54.73
2023-01-29T01:37:41.798Z,54.90
2023-01-29T01:40:18.993Z,55.13
2023-01-29T01:42:52.540Z,55.20
2023-01-29T01:45:24.778Z,55.27
2023-01-29T01:47:56.263Z,54.97
2023-01-29T01:50:42.589Z,54.93
2023-01-29T01:53:14.490Z,55.33
2023-01-29T01:55:55.241Z,55.21
2023-01-29T01:58:26.556Z,54.92
2023-01-29T02:00:53.443Z,54.90
2023-01-29T02:03:41.385Z,55.03
2023-01-29T02:06:28.816Z,55.08
2023-01-29T02:09:21.995Z,54.95
2023-01-29T02:11:48.391Z,55.22
2023-01-29T02:14:14.746Z,55.05
2023-01-29T02:16:41.144Z,55.30
2023-01-29T02:19:34.687Z,55.41
2023-01-29T02:22:21.581Z,55.40
2023-01-29T02:25:00.118Z,55.16
2023-01-29T02:27:57.543Z,55.41
2023-01-29T02:30:33.552Z,55.28
2023-01-29T02:33:22.330Z,55.06
2023-01-29T02:35:58.610Z,55.16
2023-01-29T02:38:55.502Z,55.38
2023-01-29T02:41:27.828Z,55.02
2023-01-29T02:44:20.338Z,55.20
2023-01-29T02:46:56.399Z,55.02
2023-01-29T02:49:52.579Z,55.22
2023-01-29T02:52:25.248Z,55.39
2023-01-29T02:55:04.715Z,55.21
2023-01-29T02:57:36.890Z,55.36
2023-01-29T03:00:16.179Z,55.23
2023-01-29T03:03:08.768Z,55.28
2023-01-29T03:05:45.645Z,55.48
2023-01-29T03:08:18.324Z,55.27
2023-01-29T03:10:53.890Z,55.35
2023-01-29T03:13:35.507Z,55.57
2023-01-29T03:16:14.095Z,55.21
2023-01-29T03:18:46.236Z,55.26
2023-01-29T03:21:55.203Z,55.41
2023-01-29T03:24:50.534Z,55.56
2023-01-29T03:27:39.159Z,55.36
2023-01-29T03:30:27.852Z,55.42
2023-01-29T03:32:56.223Z,55.16
2023-01-29T03:35:36.435Z,55.33
2023-01-29T03:38:05.455Z,55.41
2023-01-29T03:40:43.671Z,55.66
2023-01-29T03:43:32.932Z,55.37
2023-01-29T03:46:19.927Z,55.69
2023-01-29T03:49:18.540Z,55.66
2023-01-29T03:52:11.024Z,55.23
2023-01-29T03:54:57.682Z,55.61
2023-01-29T03:57:39.157Z,55.58
2023-01-29T04:00:21.244Z,55.74
2023-01-29T04:02:55.496Z,55.43
2023-01-29T04:05:27.341Z,55.66
2023-01-29T04:08:02.443Z,55.58
2023-01-29T04:10:29.668Z,55.53
2023-01-29T04:13:04.285Z,55.45
2023-01-29T04:15:36.404Z,55.39
2023-01-29T04:18:02.795Z,55.45
2023-01-29T04:20:29.190Z,55.34
2023-01-29T04:22:55.884Z,55.59
2023-01-29T04:25:28.871Z,55.59
2023-01-29T04:28:08.627Z,55.55
2023-01-29T04:30:44.873Z,55.46
2023-01-29T04:33:11.208Z,55.73
2023-01-29T04:35:40.562Z,55.61
2023-01-29T04:38:34.205Z,55.54
2023-01-29T04:41:48.615Z,55.73
2023-01-29T04:44:26.881Z,55.73
2023-01-29T04:47:11.398Z,55.68
2023-01-29T04:49:47.063Z,55.45
2023-01-29T04:52:13.350Z,55.69
2023-01-29T04:54:48.317Z,55.30
2023-01-29T04:57:23.098Z,55.27
2023-01-29T05:00:00.527Z,55.28
2023-01-29T05:02:28.296Z,55.51
2023-01-29T05:04:58.440Z,55.26
2023-01-29T05:07:28.286Z,55.55
2023-01-29T05:09:55.931Z,55.57
2023-01-29T05:12:28.729Z,55.47
2023-01-29T05:15:00.232Z,55.89
2023-01-29T05:17:26.802Z,55.80
2023-01-29T05:19:54.909Z,55.62
2023-01-29T05:22:23.145Z,55.47
2023-01-29T05:24:50.560Z,55.78
2023-01-29T05:27:42.673Z,55.71
2023-01-29T05:30:10.326Z,55.72
2023-01-29T05:32:36.724Z,55.77
2023-01-29T05:35:03.214Z,55.52
2023-01-29T05:37:29.532Z,55.82
2023-01-29T05:39:55.879Z,55.91
2023-01-29T05:42:22.258Z,55.51
2023-01-29T05:44:48.596Z,55.70
2023-01-29T05:47:19.236Z,55.71
2023-01-29T05:52:20.541Z,55.90
2023-01-29T05:54:46.961Z,55.62
2023-01-29T05:57:14.732Z,55.90
2023-01-29T05:59:41.076Z,56.06
2023-01-29T06:02:07.432Z,55.81
2023-01-29T06:04:33.936Z,56.13
2023-01-29T06:07:03.259Z,56.02
2023-01-29T06:09:29.576Z,56.02
2023-01-29T06:11:55.965Z,55.87
2023-01-29T06:14:22.336Z,56.06
2023-01-29T06:16:48.682Z,56.06
2023-01-29T06:19:15.313Z,55.85
2023-01-29T06:21:41.639Z,56.18
2023-01-29T06:24:08.627Z,56.28
2023-01-29T06:26:35.117Z,56.28
2023-01-29T06:29:01.560Z,56.14
2023-01-29T06:31:38.188Z,55.96
2023-01-29T06:34:05.695Z,55.84
2023-01-29T06:36:32.235Z,56.36
2023-01-29T06:38:58.763Z,56.32
2023-01-29T06:41:25.553Z,55.99
2023-01-29T06:43:52.462Z,55.96
2023-01-29T06:46:18.843Z,56.15
2023-01-29T06:48:45.209Z,56.52
2023-01-29T06:51:11.849Z,56.45
2023-01-29T06:53:39.542Z,56.19
2023-01-29T06:56:06.760Z,56.18
2023-01-29T06:58:33.611Z,56.60
2023-01-29T07:01:34.591Z,56.12
2023-01-29T07:04:02.876Z,56.48
2023-01-29T07:06:29.478Z,56.28
2023-01-29T07:08:56.692Z,56.33
2023-01-29T07:11:23.172Z,56.39
2023-01-29T07:13:49.603Z,56.28
2023-01-29T07:16:16.045Z,56.54
2023-01-29T07:18:42.454Z,56.53
2023-01-29T07:21:08.814Z,56.59
2023-01-29T07:23:35.328Z,56.16
2023-01-29T07:26:06.304Z,56.20
2023-01-29T07:28:40.916Z,56.16
2023-01-29T07:31:08.000Z,56.26
2023-01-29T07:33:34.678Z,56.34
2023-01-29T07:36:01.161Z,56.59
2023-01-29T07:38:27.685Z,56.66
2023-01-29T07:40:54.333Z,56.47
2023-01-29T07:43:20.877Z,56.55
2023-01-29T07:45:47.403Z,56.64
2023-01-29T07:48:13.927Z,56.42
2023-01-29T07:50:41.395Z,56.58
2023-01-29T07:53:12.301Z,56.34
2023-01-29T07:55:38.731Z,56.46
2023-01-29T07:58:05.181Z,56.32
2023-01-29T08:00:31.760Z,56.16
2023-01-29T08:03:11.966Z,56.18
2023-01-29T08:05:38.343Z,56.31
2023-01-29T08:08:07.346Z,56.14
2023-01-29T08:10:38.344Z,56.52
2023-01-29T08:13:05.439Z,56.21
2023-01-29T08:15:33.054Z,56.17
2023-01-29T08:18:01.484Z,56.26
2023-01-29T08:20:28.458Z,56.40
2023-01-29T08:23:06.261Z,56.17
2023-01-29T08:25:32.877Z,56.17
2023-01-29T08:28:00.543Z,56.58
2023-01-29T08:30:30.483Z,56.58
2023-01-29T08:32:56.835Z,56.58
2023-01-29T08:35:23.990Z,56.17
2023-01-29T08:37:59.366Z,56.72
2023-01-29T08:40:27.332Z,56.76
2023-01-29T08:43:00.367Z,56.51
2023-01-29T08:45:27.951Z,56.40
2023-01-29T08:47:54.278Z,56.35
2023-01-29T08:50:20.843Z,56.40
2023-01-29T08:52:47.216Z,56.62
2023-01-29T08:55:14.083Z,56.39
2023-01-29T08:57:40.652Z,56.41
2023-01-29T09:00:10.282Z,56.21
2023-01-29T09:02:37.510Z,56.61
2023-01-29T09:05:04.076Z,56.39
2023-01-29T09:07:30.377Z,56.81
2023-01-29T09:09:56.735Z,56.84
2023-01-29T09:12:23.115Z,56.89
2023-01-29T09:14:49.412Z,56.50
2023-01-29T09:17:15.767Z,56.67
2023-01-29T09:19:42.112Z,56.75
2023-01-29T09:22:10.353Z,56.67
2023-01-29T09:24:37.326Z,56.94
2023-01-29T09:27:05.044Z,56.58
2023-01-29T09:29:32.299Z,56.92
2023-01-29T09:31:59.977Z,57.16
2023-01-29T09:34:26.338Z,56.43
2023-01-29T09:36:52.790Z,56.74
2023-01-29T09:39:19.134Z,56.82
2023-01-29T09:42:07.711Z,56.51
2023-01-29T09:45:02.516Z,56.43
2023-01-29T09:47:31.863Z,56.58
2023-01-29T09:50:05.698Z,56.77
2023-01-29T09:52:38.743Z,56.55
2023-01-29T09:55:26.157Z,56.33
2023-01-29T09:58:01.067Z,56.37
2023-01-29T10:00:30.287Z,56.45
2023-01-29T10:03:15.517Z,56.53
2023-01-29T10:06:03.530Z,56.65
2023-01-29T10:08:58.814Z,56.86
2023-01-29T10:12:11.013Z,56.77
2023-01-29T10:14:49.722Z,56.38
2023-01-29T10:17:36.304Z,56.20
2023-01-29T10:20:36.649Z,56.18
2023-01-29T10:23:18.135Z,56.57
2023-01-29T10:25:47.200Z,56.51
2023-01-29T10:28:29.339Z,56.10
2023-01-29T10:31:01.923Z,56.03
2023-01-29T10:34:01.975Z,56.12
2023-01-29T10:36:36.842Z,55.58
2023-01-29T10:39:03.256Z,55.96
2023-01-29T10:41:49.592Z,55.50
2023-01-29T10:44:40.185Z,55.92
2023-01-29T10:47:20.011Z,55.83
2023-01-29T10:50:01.798Z,56.03
2023-01-29T10:52:50.928Z,56.15
2023-01-29T10:55:36.356Z,56.13
2023-01-29T10:58:15.256Z,56.12
2023-01-29T11:00:42.189Z,55.75
2023-01-29T11:03:33.455Z,55.61
2023-01-29T11:06:23.540Z,55.65
2023-01-29T11:08:56.101Z,55.17
2023-01-29T11:11:32.980Z,55.48
2023-01-29T11:14:07.170Z,55.63
2023-01-29T11:16:42.326Z,55.06
2023-01-29T11:19:08.870Z,55.12
2023-01-29T11:21:58.970Z,55.55
2023-01-29T11:24:26.597Z,55.46
2023-01-29T11:26:57.076Z,55.46
2023-01-29T11:29:38.181Z,55.04
2023-01-29T11:32:08.082Z,55.11
2023-01-29T11:34:34.493Z,55.13
2023-01-29T11:37:15.026Z,55.48
2023-01-29T11:39:47.096Z,55.26
2023-01-29T11:42:22.564Z,55.33
2023-01-29T11:44:49.637Z,55.30
2023-01-29T11:47:15.954Z,55.20
2023-01-29T11:50:02.193Z,54.93
2023-01-29T11:52:40.771Z,54.80
2023-01-29T11:55:16.446Z,54.69
2023-01-29T11:57:48.486Z,54.97
2023-01-29T12:00:23.540Z,54.51
2023-01-29T12:02:54.255Z,54.72
2023-01-29T12:05:26.287Z,54.75
2023-01-29T12:08:01.278Z,54.78
2023-01-29T12:10:36.818Z,54.79
2023-01-29T12:13:20.098Z,54.89
2023-01-29T12:15:48.096Z,54.57
2023-01-29T12:18:35.456Z,54.79
2023-01-29T12:21:04.775Z,54.38
2023-01-29T12:24:16.247Z,54.83
2023-01-29T12:26:51.077Z,54.91
2023-01-29T12:29:39.431Z,54.81
2023-01-29T12:32:14.975Z,54.46
2023-01-29T12:34:53.129Z,54.78
2023-01-29T12:37:42.200Z,54.62
2023-01-29T12:40:13.844Z,54.30
2023-01-29T12:42:44.483Z,54.65
2023-01-29T12:45:18.629Z,54.27
2023-01-29T12:47:52.229Z,54.65
2023-01-29T12:50:27.502Z,54.55
2023-01-29T12:52:58.351Z,54.33
2023-01-29T12:55:29.384Z,54.41
2023-01-29T12:58:12.800Z,54.48
2023-01-29T13:00:44.800Z,54.60
2023-01-29T13:03:17.258Z,54.70
2023-01-29T13:05:46.296Z,54.59
2023-01-29T13:08:29.113Z,54.55
2023-01-29T13:10:58.460Z,54.43
2023-01-29T13:13:36.789Z,54.16
2023-01-29T13:16:07.349Z,54.16
2023-01-29T13:18:40.800Z,54.01
2023-01-29T13:21:14.180Z,54.14
2023-01-29T13:23:47.241Z,54.08
2023-01-29T13:26:18.783Z,54.48
2023-01-29T13:28:46.115Z,53.91
2023-01-29T13:31:40.868Z,54.16
2023-01-29T13:34:24.955Z,54.22
2023-01-29T13:36:57.324Z,54.11
2023-01-29T13:39:28.843Z,54.17
2023-01-29T13:41:56.923Z,54.13
2023-01-29T13:44:37.749Z,54.26
2023-01-29T13:47:20.208Z,54.19
2023-01-29T13:50:07.842Z,54.21
2023-01-29T13:52:56.450Z,54.63
2023-01-29T13:55:31.304Z,54.54
2023-01-29T13:58:21.221Z,54.85
2023-01-29T14:00:49.103Z,54.43
2023-01-29T14:03:15.425Z,54.98
2023-01-29T14:06:00.678Z,54.74
2023-01-29T14:08:37.717Z,54.97
2023-01-29T14:11:13.032Z,54.58
2023-01-29T14:13:39.747Z,54.46
2023-01-29T14:16:28.531Z,55.04
2023-01-29T14:19:02.006Z,54.94
2023-01-29T14:21:32.478Z,54.98
2023-01-29T14:24:09.636Z,54.77
2023-01-29T14:26:38.757Z,55.25
2023-01-29T14:29:33.891Z,55.23
2023-01-29T14:32:13.169Z,55.25
2023-01-29T14:34:47.781Z,54.99
2023-01-29T14:37:18.676Z,54.82
2023-01-29T14:40:11.539Z,54.98
2023-01-29T14:42:44.129Z,55.13
2023-01-29T14:45:22.529Z,54.80
2023-01-29T14:47:48.829Z,54.92
2023-01-29T14:50:33.501Z,55.17
2023-01-29T14:53:09.093Z,55.02
2023-01-29T14:55:41.793Z,55.22
2023-01-29T14:58:18.342Z,55.49
2023-01-29T15:00:50.355Z,55.57
2023-01-29T15:03:28.256Z,55.21
2023-01-29T15:05:55.815Z,55.78
2023-01-29T15:08:38.139Z,55.73
2023-01-29T15:11:36.034Z,55.96
2023-01-29T15:14:14.428Z,55.32
2023-01-29T15:17:07.890Z,55.35
2023-01-29T15:19:34.202Z,55.49
2023-01-29T15:22:13.140Z,55.38
2023-01-29T15:24:41.786Z,55.66
2023-01-29T15:27:14.397Z,55.91
2023-01-29T15:29:43.068Z,55.98
2023-01-29T15:32:16.799Z,55.99
2023-01-29T15:34:44.177Z,55.80
2023-01-29T15:37:30.856Z,56.19
2023-01-29T15:39:57.489Z,55.85
2023-01-29T15:42:25.783Z,56.00
2023-01-29T15:44:56.127Z,55.98
2023-01-29T15:47:31.076Z,56.16
2023-01-29T15:49:57.906Z,55.84
2023-01-29T15:52:28.694Z,56.14
2023-01-29T15:54:57.823Z,56.32
2023-01-29T15:57:37.246Z,56.46
2023-01-29T16:00:05.564Z,56.27
2023-01-29T16:02:34.998Z,56.38
2023-01-29T16:05:02.470Z,56.47
2023-01-29T16:07:30.063Z,56.40
2023-01-29T16:09:57.419Z,56.81
2023-01-29T16:12:24.334Z,56.51
2023-01-29T16:14:51.699Z,56.73
2023-01-29T16:17:35.454Z,56.85
2023-01-29T16:20:07.515Z,56.62
2023-01-29T16:22:36.973Z,56.66
2023-01-29T16:25:14.503Z,56.59
2023-01-29T16:27:43.931Z,56.98
2023-01-29T16:30:16.209Z,56.67
2023-01-29T16:32:42.899Z,56.68
2023-01-29T16:35:15.707Z,57.14
2023-01-29T16:37:46.633Z,57.32
2023-01-29T16:40:26.929Z,56.73
2023-01-29T16:43:41.910Z,56.93
2023-01-29T16:46:20.700Z,57.01
2023-01-29T16:48:47.799Z,57.25
2023-01-29T16:51:22.395Z,57.13
2023-01-29T16:54:00.984Z,57.15
2023-01-29T16:56:30.914Z,57.56
2023-01-29T16:58:58.212Z,57.66
2023-01-29T17:01:28.407Z,57.65
2023-01-29T17:04:07.547Z,57.78
2023-01-29T17:06:34.862Z,57.82
2023-01-29T17:09:02.479Z,58.28
2023-01-29T17:11:38.423Z,57.89
2023-01-29T17:14:07.294Z,58.22
2023-01-29T17:16:50.298Z,58.60
2023-01-29T17:19:20.671Z,58.80
2023-01-29T17:21:47.706Z,58.82
2023-01-29T17:24:14.207Z,59.01
2023-01-29T17:26:41.126Z,59.28
2023-01-29T17:29:13.857Z,58.99
2023-01-29T17:31:40.643Z,58.90
2023-01-29T17:34:14.929Z,58.82
2023-01-29T17:36:45.182Z,59.19
2023-01-29T17:39:17.090Z,59.10
2023-01-29T17:41:47.520Z,59.21
2023-01-29T17:44:13.980Z,59.53
2023-01-29T17:46:40.315Z,59.21
2023-01-29T17:49:26.558Z,59.38
2023-01-29T17:51:53.565Z,59.58
2023-01-29T17:54:20.208Z,59.04
2023-01-29T17:56:47.259Z,59.21
2023-01-29T17:59:16.023Z,59.18
2023-01-29T18:01:42.559Z,59.44
2023-01-29T18:04:09.432Z,59.37
2023-01-29T18:06:36.561Z,59.69
2023-01-29T18:09:03.608Z,59.36
2023-01-29T18:11:30.628Z,59.33
2023-01-29T18:13:57.400Z,59.74
2023-01-29T18:16:24.767Z,59.52
2023-01-29T18:18:52.385Z,59.38
2023-01-29T18:21:18.924Z,59.54
2023-01-29T18:23:45.387Z,59.39
2023-01-29T18:26:12.804Z,59.66
2023-01-29T18:28:39.188Z,59.82
2023-01-29T18:31:05.933Z,59.56
2023-01-29T18:33:34.287Z,59.64
2023-01-29T18:36:00.776Z,59.65
2023-01-29T18:38:27.474Z,59.62
2023-01-29T18:40:53.923Z,59.86
2023-01-29T18:43:20.268Z,59.84
2023-01-29T18:45:46.678Z,59.61
2023-01-29T18:48:14.127Z,59.92
2023-01-29T18:50:40.460Z,59.59
2023-01-29T18:53:07.596Z,59.59
2023-01-29T18:55:34.090Z,60.00
2023-01-29T18:58:27.495Z,59.82
2023-01-29T19:00:46.904Z,59.76
2023-01-29T19:03:13.392Z,60.18
2023-01-29T19:05:39.839Z,59.94
2023-01-29T19:08:06.388Z,59.70
2023-01-29T19:10:33.134Z,60.18
2023-01-29T19:12:59.547Z,60.23
2023-01-29T19:15:26.094Z,59.96
2023-01-29T19:17:52.777Z,60.21
2023-01-29T19:20:19.291Z,60.03
2023-01-29T19:22:45.792Z,60.15
2023-01-29T19:25:12.730Z,60.20
2023-01-29T19:27:39.192Z,60.29
2023-01-29T19:30:06.058Z,60.59
2023-01-29T19:32:32.905Z,60.24
2023-01-29T19:34:59.306Z,60.34
2023-01-29T19:37:25.811Z,60.63
2023-01-29T19:39:53.511Z,60.66
2023-01-29T19:42:20.799Z,60.39
2023-01-29T19:44:47.384Z,60.85
2023-01-29T19:47:13.821Z,60.81
2023-01-29T19:49:40.493Z,60.56
2023-01-29T19:52:14.738Z,60.96
2023-01-29T19:54:45.998Z,60.79
2023-01-29T19:57:12.406Z,60.88
2023-01-29T19:59:38.837Z,61.01
2023-01-29T20:02:05.546Z,60.92
2023-01-29T20:04:32.330Z,61.29
2023-01-29T20:06:59.555Z,61.33
2023-01-29T20:09:25.892Z,61.31
2023-01-29T20:11:52.222Z,61.24
2023-01-29T20:14:18.584Z,61.46
2023-01-29T20:16:44.973Z,61.11
2023-01-29T20:19:13.315Z,61.32
2023-01-29T20:21:41.799Z,61.78
2023-01-29T20:24:12.258Z,61.36
2023-01-29T20:26:38.932Z,61.84
2023-01-29T20:29:05.640Z,61.91
2023-01-29T20:31:32.014Z,61.57
2023-01-29T20:33:58.418Z,61.52
2023-01-29T20:36:24.735Z,61.53
2023-01-29T20:38:51.183Z,61.66
2023-01-29T20:41:19.272Z,61.89
2023-01-29T20:43:46.908Z,61.83
2023-01-29T20:46:13.959Z,62.01
2023-01-29T20:48:41.866Z,61.86
2023-01-29T20:51:12.989Z,61.73
2023-01-29T20:53:40.966Z,61.86
2023-01-29T20:56:08.401Z,61.89
2023-01-29T20:58:36.008Z,61.54
2023-01-29T21:01:17.268Z,61.46
2023-01-29T21:03:44.555Z,61.74
2023-01-29T21:06:11.330Z,61.44
2023-01-29T21:08:38.216Z,61.93
2023-01-29T21:11:06.265Z,61.79
2023-01-29T21:13:33.065Z,61.28
2023-01-29T21:15:59.830Z,61.54
2023-01-29T21:18:26.376Z,61.26
2023-01-29T21:20:53.576Z,61.28
2023-01-29T21:23:20.402Z,61.18
2023-01-29T21:25:46.759Z,61.28
2023-01-29T21:28:13.067Z,61.50
2023-01-29T21:30:39.583Z,61.15
2023-01-29T21:33:06.076Z,61.45
2023-01-29T21:35:32.480Z,61.34
2023-01-29T21:37:58.895Z,61.28
2023-01-29T21:40:29.731Z,61.53
2023-01-29T21:43:16.044Z,61.29
2023-01-29T21:45:43.036Z,60.99
2023-01-29T21:48:11.248Z,61.04
2023-01-29T21:50:38.821Z,61.15
2023-01-29T21:53:05.142Z,61.22
2023-01-29T21:55:32.445Z,61.67
2023-01-29T21:58:00.419Z,61.74
2023-01-29T22:00:27.223Z,61.35
2023-01-29T22:02:53.673Z,61.29
2023-01-29T22:05:20.534Z,61.64
2023-01-29T22:07:48.330Z,61.37
2023-01-29T22:10:16.841Z,61.64
2023-01-29T22:12:44.589Z,61.55
2023-01-29T22:15:13.011Z,61.90
2023-01-29T22:17:41.355Z,61.94
2023-01-29T22:20:12.418Z,61.42
2023-01-29T22:22:39.120Z,61.78
2023-01-29T22:25:06.274Z,61.83
2023-01-29T22:27:33.628Z,61.61
2023-01-29T22:30:00.096Z,61.76
2023-01-29T22:32:26.722Z,61.58
2023-01-29T22:34:53.143Z,61.91
2023-01-29T22:37:19.588Z,61.92
2023-01-29T22:39:45.906Z,61.88
2023-01-29T22:42:12.352Z,62.19
2023-01-29T22:44:38.769Z,62.09
2023-01-29T22:47:05.199Z,61.91
2023-01-29T22:49:32.167Z,61.92
2023-01-29T22:52:16.290Z,61.88
2023-01-29T22:54:43.608Z,61.88
2023-01-29T22:57:12.377Z,62.36
2023-01-29T22:59:39.098Z,62.40
2023-01-29T23:02:06.648Z,62.31
2023-01-29T23:04:33.181Z,62.09
2023-01-29T23:06:59.575Z,62.62
2023-01-29T23:09:26.062Z,62.72
2023-01-29T23:11:52.415Z,62.36
2023-01-29T23:14:18.884Z,62.29
2023-01-29T23:16:45.366Z,62.81
2023-01-29T23:19:12.217Z,62.43
2023-01-29T23:21:39.449Z,62.71
2023-01-29T23:24:07.139Z,62.49
2023-01-29T23:26:51.887Z,62.74
2023-01-29T23:29:18.324Z,62.53
2023-01-29T23:31:44.791Z,62.67
2023-01-29T23:34:11.358Z,62.61
2023-01-29T23:36:37.851Z,62.74
2023-01-29T23:39:04.513Z,63.26
2023-01-29T23:41:30.824Z,62.96
2023-01-29T23:43:57.376Z,62.98
2023-01-29T23:46:23.784Z,62.67
2023-01-29T23:48:50.125Z,63.22
2023-01-29T23:51:16.839Z,63.07
2023-01-29T23:53:43.240Z,63.20
2023-01-29T23:56:10.388Z,63.01
2023-01-29T23:58:36.776Z,62.88
